Time;durP1;ratioP1;P1;durP2;ratioP2;P2;SDS_P1;SDS_P2;PMS_P1;PMS_P2;Temp;Humidity;BMP_temperature;BMP_pressure;BME280_temperature;BME280_humidity;BME280_pressure;Samples;Min_cycle;Max_cycle;Signal;HPM_P1;HPM_P2
2023/05/25 00:02:06;;;;;;;5.57;1.10;;;10.20;99.90;;;;;;5075843;28;20048;-82
2023/05/25 00:04:33;;;;;;;4.00;1.10;;;10.20;99.90;;;;;;5095256;28;20047;-81
2023/05/25 00:07:02;;;;;;;4.88;1.10;;;10.60;99.90;;;;;;5093624;28;20058;-85
2023/05/25 00:09:28;;;;;;;4.95;1.00;;;10.20;99.90;;;;;;5078087;28;20040;-83
2023/05/25 00:11:54;;;;;;;5.47;1.20;;;10.20;99.90;;;;;;5093247;28;20043;-81
2023/05/25 00:14:20;;;;;;;4.38;1.88;;;10.40;99.90;;;;;;5080126;28;20056;-85
2023/05/25 00:16:47;;;;;;;2.30;1.00;;;10.50;99.90;;;;;;5056430;28;20040;-82
2023/05/25 00:19:13;;;;;;;2.70;1.13;;;10.60;99.90;;;;;;5057063;28;20098;-86
2023/05/25 00:21:44;;;;;;;6.07;1.00;;;10.30;99.90;;;;;;5075275;28;20041;-84
2023/05/25 00:24:10;;;;;;;5.53;1.00;;;9.90;99.90;;;;;;5086220;28;20082;-89
2023/05/25 00:26:36;;;;;;;4.95;1.15;;;9.80;99.90;;;;;;5095370;28;20090;-83
2023/05/25 00:29:06;;;;;;;8.15;1.45;;;9.70;99.90;;;;;;5095040;28;20040;-87
2023/05/25 00:31:32;;;;;;;3.67;1.27;;;11.10;99.90;;;;;;5096062;28;20468;-89
2023/05/25 00:33:59;;;;;;;2.45;0.93;;;11.10;99.90;;;;;;5090112;28;20032;-83
2023/05/25 00:36:24;;;;;;;2.42;0.90;;;9.60;99.90;;;;;;5062040;28;20052;-90
2023/05/25 00:38:50;;;;;;;4.50;1.35;;;10.50;99.90;;;;;;5076495;28;20052;-88
2023/05/25 00:41:17;;;;;;;5.47;0.77;;;9.70;99.90;;;;;;5078841;28;20093;-82
2023/05/25 00:43:45;;;;;;;4.20;1.55;;;9.70;99.90;;;;;;5103066;28;20044;-80
2023/05/25 00:46:13;;;;;;;6.10;1.10;;;10.00;99.90;;;;;;5104295;28;20067;-82
2023/05/25 00:52:35;;;;;;;5.03;1.20;;;9.60;99.90;;;;;;5106163;28;20154;-82
2023/05/25 00:55:02;;;;;;;6.03;1.00;;;9.60;99.90;;;;;;5080933;28;20385;-83
2023/05/25 00:57:32;;;;;;;4.40;1.10;;;9.50;99.90;;;;;;5094924;28;20123;-87
2023/05/25 00:59:59;;;;;;;3.58;0.90;;;9.50;99.90;;;;;;5102191;28;20421;-94
2023/05/25 01:02:27;;;;;;;12.48;1.95;;;9.20;99.90;;;;;;5064912;28;20431;-87
2023/05/25 01:04:58;;;;;;;4.60;1.40;;;9.40;99.90;;;;;;5063030;28;20097;-89
2023/05/25 01:07:26;;;;;;;5.13;1.40;;;9.40;99.90;;;;;;5097741;28;20076;-92
2023/05/25 01:10:04;;;;;;;4.80;1.15;;;9.80;99.90;;;;;;5102301;28;20055;-88
2023/05/25 01:12:36;;;;;;;4.85;1.40;;;9.30;99.90;;;;;;5086569;28;20048;-86
2023/05/25 01:15:03;;;;;;;8.18;1.15;;;10.10;99.90;;;;;;5103601;28;20086;-93
2023/05/25 01:17:29;;;;;;;4.13;1.55;;;9.30;99.90;;;;;;5094180;28;20055;-88
2023/05/25 01:19:57;;;;;;;4.75;1.27;;;9.80;99.90;;;;;;5083927;28;20045;-90
2023/05/25 01:22:44;;;;;;;2.58;1.08;;;9.30;99.90;;;;;;5086697;28;20048;-93
2023/05/25 01:25:22;;;;;;;4.95;1.30;;;9.30;99.90;;;;;;5085618;28;20433;-90
2023/05/25 01:27:53;;;;;;;3.50;1.17;;;8.60;99.90;;;;;;5095177;28;20089;-93
2023/05/25 01:30:24;;;;;;;4.10;1.38;;;10.00;99.90;;;;;;5089205;28;20040;-94
2023/05/25 01:32:50;;;;;;;2.75;1.30;;;10.00;99.90;;;;;;5082048;28;20045;-91
2023/05/25 01:35:18;;;;;;;3.15;1.08;;;9.80;99.90;;;;;;5084620;28;20056;-89
2023/05/25 01:37:45;;;;;;;4.35;1.77;;;9.20;99.90;;;;;;5083335;28;20041;-92
2023/05/25 01:40:12;;;;;;;4.22;1.27;;;9.90;99.90;;;;;;5077529;28;20095;-86
2023/05/25 01:42:38;;;;;;;2.85;1.30;;;9.10;99.90;;;;;;5085833;28;20040;-86
2023/05/25 01:45:04;;;;;;;4.55;1.80;;;9.20;99.90;;;;;;5095371;28;20086;-89
2023/05/25 01:47:54;;;;;;;4.78;1.35;;;9.10;99.90;;;;;;5066769;28;20080;-91
2023/05/25 01:50:32;;;;;;;4.40;1.50;;;9.00;99.90;;;;;;5100961;28;20052;-92
2023/05/25 01:53:13;;;;;;;4.05;1.65;;;9.30;99.90;;;;;;5093634;28;20074;-90
2023/05/25 01:55:46;;;;;;;3.97;1.20;;;9.00;99.90;;;;;;5110052;28;20070;-86
2023/05/25 01:58:14;;;;;;;4.38;1.02;;;9.90;99.90;;;;;;5072736;28;20055;-87
2023/05/25 02:00:41;;;;;;;5.15;1.35;;;9.70;99.90;;;;;;5094499;28;20048;-88
2023/05/25 02:07:25;;;;;;;3.22;1.00;;;9.00;99.90;;;;;;5109870;28;20043;-91
2023/05/25 02:09:51;;;;;;;3.83;1.00;;;8.90;99.90;;;;;;5109010;28;20044;-86
2023/05/25 02:12:16;;;;;;;4.53;1.17;;;8.70;99.90;;;;;;5108670;28;20100;-84
2023/05/25 02:14:44;;;;;;;1.33;0.85;;;8.80;99.90;;;;;;5090579;28;20072;-85
2023/05/25 02:17:11;;;;;;;2.42;1.05;;;8.80;99.90;;;;;;5108300;28;20054;-84
2023/05/25 02:23:18;;;;;;;2.42;1.20;;;8.60;99.90;;;;;;5083237;28;20459;-81
2023/05/25 02:25:44;;;;;;;3.22;1.13;;;8.90;99.90;;;;;;5067266;28;20119;-82
2023/05/25 02:28:09;;;;;;;4.45;1.13;;;9.30;99.90;;;;;;5086979;28;20040;-81
2023/05/25 02:30:35;;;;;;;2.95;1.23;;;9.50;99.90;;;;;;5097302;28;20531;-81
2023/05/25 02:33:01;;;;;;;3.20;1.20;;;8.50;99.90;;;;;;5096292;28;20041;-81
2023/05/25 02:39:09;;;;;;;3.08;1.20;;;8.50;99.90;;;;;;5113525;28;20446;-82
2023/05/25 02:41:36;;;;;;;4.80;1.33;;;8.50;99.90;;;;;;5084353;28;20469;-88
2023/05/25 02:44:02;;;;;;;4.07;1.23;;;8.40;99.90;;;;;;5087128;28;20052;-89
2023/05/25 02:46:28;;;;;;;4.07;1.30;;;8.30;99.90;;;;;;5086622;28;20496;-92
2023/05/25 02:48:53;;;;;;;3.05;1.15;;;8.40;99.90;;;;;;5105317;28;20070;-86
2023/05/25 02:51:19;;;;;;;3.50;1.00;;;9.30;99.90;;;;;;5089926;28;20068;-89
2023/05/25 02:53:45;;;;;;;2.97;1.35;;;8.30;99.90;;;;;;5084640;28;20051;-93
2023/05/25 02:56:10;;;;;;;4.15;1.23;;;8.60;99.90;;;;;;5098964;28;20043;-90
2023/05/25 02:58:37;;;;;;;3.22;1.50;;;9.10;99.90;;;;;;5105864;28;20048;-88
2023/05/25 03:01:04;;;;;;;4.88;1.20;;;9.70;99.90;;;;;;5108300;28;20070;-91
2023/05/25 03:03:30;;;;;;;3.17;1.10;;;8.40;99.90;;;;;;5108029;28;20059;-81
2023/05/25 03:05:56;;;;;;;4.13;1.30;;;8.40;99.90;;;;;;5059116;28;20100;-87
2023/05/25 03:08:22;;;;;;;4.63;1.00;;;8.50;99.90;;;;;;5095214;28;20071;-83
2023/05/25 03:10:48;;;;;;;3.58;1.30;;;8.40;99.90;;;;;;5075450;28;20063;-85
2023/05/25 03:13:16;;;;;;;4.65;1.20;;;9.30;99.90;;;;;;5058714;28;20109;-86
2023/05/25 03:15:42;;;;;;;3.33;1.08;;;8.40;99.90;;;;;;5067392;28;20059;-82
2023/05/25 03:18:10;;;;;;;4.80;1.77;;;8.40;99.90;;;;;;5081879;28;20070;-85
2023/05/25 03:20:40;;;;;;;2.75;1.30;;;8.40;99.90;;;;;;5082703;28;20084;-86
2023/05/25 03:23:07;;;;;;;2.75;1.27;;;8.40;99.90;;;;;;5057491;28;20049;-83
2023/05/25 03:25:33;;;;;;;6.68;1.23;;;9.00;99.90;;;;;;5057510;28;20513;-88
2023/05/25 03:27:59;;;;;;;4.32;2.00;;;9.50;99.90;;;;;;5066848;28;20041;-84
2023/05/25 03:30:24;;;;;;;3.17;1.13;;;8.40;99.90;;;;;;5081213;28;20079;-87
2023/05/25 03:32:51;;;;;;;4.03;1.70;;;9.10;99.90;;;;;;5055389;28;20454;-92
2023/05/25 03:38:57;;;;;;;3.28;1.25;;;8.40;99.90;;;;;;5070457;28;20036;-90
2023/05/25 03:41:23;;;;;;;3.97;1.52;;;8.10;99.90;;;;;;5077247;28;20048;-83
2023/05/25 03:43:49;;;;;;;6.45;1.55;;;8.40;99.90;;;;;;5069515;28;20174;-86
2023/05/25 03:46:18;;;;;;;3.95;1.50;;;8.50;99.90;;;;;;5084974;28;20131;-81
2023/05/25 03:48:45;;;;;;;8.32;1.90;;;9.20;99.90;;;;;;5081335;28;20090;-84
2023/05/25 03:51:11;;;;;;;7.53;1.55;;;8.40;99.90;;;;;;5078144;28;20037;-84
2023/05/25 03:53:36;;;;;;;4.90;1.52;;;8.50;99.90;;;;;;5078718;28;20070;-83
2023/05/25 03:56:02;;;;;;;4.63;1.10;;;9.00;99.90;;;;;;5078314;28;20480;-81
2023/05/25 03:58:28;;;;;;;2.47;1.00;;;8.50;99.90;;;;;;5078596;28;20052;-80
2023/05/25 04:00:55;;;;;;;7.18;1.80;;;7.50;99.90;;;;;;5076626;28;20048;-80
2023/05/25 04:03:20;;;;;;;5.53;1.73;;;8.50;99.90;;;;;;5078162;28;20120;-81
2023/05/25 04:05:46;;;;;;;5.03;1.45;;;9.30;99.90;;;;;;5078484;28;20512;-81
2023/05/25 04:08:16;;;;;;;4.00;1.05;;;9.30;99.90;;;;;;5111774;28;20055;-86
2023/05/25 04:10:44;;;;;;;3.75;1.45;;;8.70;99.90;;;;;;5092889;28;20079;-85
2023/05/25 04:13:11;;;;;;;2.58;1.23;;;8.80;99.90;;;;;;5095640;28;20040;-86
2023/05/25 04:15:38;;;;;;;3.58;1.10;;;9.10;99.90;;;;;;5113087;28;20064;-83
2023/05/25 04:18:04;;;;;;;6.00;1.63;;;8.90;99.90;;;;;;5113582;28;20051;-81
2023/05/25 04:24:11;;;;;;;3.10;1.67;;;9.00;99.90;;;;;;5108028;28;20051;-90
2023/05/25 04:26:38;;;;;;;4.38;1.60;;;10.30;99.90;;;;;;5113044;28;20028;-86
2023/05/25 04:29:03;;;;;;;4.85;1.30;;;9.20;99.90;;;;;;5072267;28;20036;-86
2023/05/25 04:31:29;;;;;;;4.70;1.75;;;9.10;99.90;;;;;;5079510;28;20055;-90
2023/05/25 04:33:55;;;;;;;4.05;2.08;;;9.30;99.90;;;;;;5060849;28;20412;-90
2023/05/25 04:36:22;;;;;;;5.50;1.33;;;9.40;99.90;;;;;;5059434;28;20048;-88
2023/05/25 04:38:50;;;;;;;5.57;1.55;;;9.50;99.90;;;;;;5076653;28;20040;-89
2023/05/25 04:41:17;;;;;;;4.07;1.50;;;9.70;99.90;;;;;;5077023;28;20060;-88
2023/05/25 04:43:44;;;;;;;7.97;2.30;;;9.70;99.90;;;;;;5090768;28;20048;-89
2023/05/25 04:46:12;;;;;;;5.53;1.85;;;10.10;99.90;;;;;;5096598;28;20058;-87
2023/05/25 04:48:39;;;;;;;5.53;1.88;;;10.70;99.90;;;;;;5096636;28;20044;-88
2023/05/25 04:51:06;;;;;;;6.45;1.88;;;10.20;99.90;;;;;;5095665;28;20480;-87
2023/05/25 04:53:34;;;;;;;7.00;2.22;;;10.20;99.90;;;;;;5075951;28;20052;-84
2023/05/25 04:55:59;;;;;;;4.53;1.90;;;11.20;99.90;;;;;;5075184;28;20049;-84
2023/05/25 04:58:25;;;;;;;6.13;2.10;;;10.30;99.90;;;;;;5073950;28;20028;-82
2023/05/25 05:00:51;;;;;;;5.63;2.13;;;10.20;99.90;;;;;;5056200;28;20044;-81
2023/05/25 05:03:17;;;;;;;7.38;3.05;;;11.30;99.90;;;;;;5075698;28;20059;-81
2023/05/25 05:05:43;;;;;;;13.93;4.00;;;10.40;99.90;;;;;;5074290;28;20055;-81
2023/05/25 05:08:09;;;;;;;9.05;2.63;;;10.80;99.90;;;;;;5073388;28;20076;-81
2023/05/25 05:10:35;;;;;;;9.40;2.63;;;10.90;99.90;;;;;;5073217;28;20095;-82
2023/05/25 05:13:00;;;;;;;10.23;2.83;;;11.00;99.90;;;;;;5056353;28;20044;-80
2023/05/25 05:15:26;;;;;;;9.50;2.92;;;11.70;99.90;;;;;;5055365;28;20040;-81
2023/05/25 05:17:53;;;;;;;8.15;2.70;;;11.20;99.90;;;;;;5073329;28;20041;-81
2023/05/25 05:20:19;;;;;;;8.98;2.22;;;11.50;99.90;;;;;;5055106;28;20044;-81
2023/05/25 05:22:44;;;;;;;11.13;2.67;;;11.40;99.90;;;;;;5074938;28;20044;-81
2023/05/25 05:25:10;;;;;;;11.40;3.58;;;11.30;99.90;;;;;;5062961;28;20086;-81
2023/05/25 05:27:36;;;;;;;9.57;2.53;;;11.40;99.90;;;;;;5075465;28;20109;-80
2023/05/25 05:30:02;;;;;;;6.18;2.60;;;11.50;99.90;;;;;;5074244;28;20050;-81
2023/05/25 05:32:28;;;;;;;4.57;1.90;;;11.50;99.90;;;;;;5093365;28;20097;-82
2023/05/25 05:34:53;;;;;;;7.35;2.22;;;11.50;99.90;;;;;;5080599;28;20477;-83
2023/05/25 05:37:19;;;;;;;8.85;2.00;;;12.00;99.90;;;;;;5073160;28;20491;-82
2023/05/25 05:39:45;;;;;;;6.95;1.60;;;11.70;99.90;;;;;;5073198;28;20420;-82
2023/05/25 05:42:10;;;;;;;10.65;2.65;;;12.40;99.90;;;;;;5049331;28;20038;-84
2023/05/25 05:44:36;;;;;;;9.18;2.03;;;13.20;99.90;;;;;;5074027;28;20044;-86
2023/05/25 05:47:02;;;;;;;7.70;1.45;;;12.40;99.90;;;;;;5072260;28;20141;-82
2023/05/25 05:49:29;;;;;;;12.00;1.85;;;12.20;99.90;;;;;;5056475;28;20052;-82
2023/05/25 05:51:59;;;;;;;11.85;1.95;;;12.00;99.90;;;;;;5073871;28;20041;-82
2023/05/25 05:54:28;;;;;;;10.35;1.70;;;12.10;99.90;;;;;;5073633;28;20048;-81
2023/05/25 05:56:54;;;;;;;7.25;1.40;;;12.10;99.90;;;;;;5071314;28;20078;-82
2023/05/25 05:59:21;;;;;;;10.15;1.70;;;12.90;99.90;;;;;;5075885;28;20360;-82
2023/05/25 06:01:46;;;;;;;11.77;1.67;;;12.30;99.90;;;;;;5051669;28;20036;-81
2023/05/25 06:04:13;;;;;;;8.50;1.10;;;12.50;99.90;;;;;;5059135;28;20040;-82
2023/05/25 06:06:40;;;;;;;6.65;1.40;;;12.50;99.90;;;;;;5071312;28;20512;-82
2023/05/25 06:09:06;;;;;;;9.25;1.73;;;13.10;99.90;;;;;;5071508;28;20127;-82
2023/05/25 06:11:35;;;;;;;9.60;1.60;;;12.70;99.90;;;;;;5048788;28;20083;-81
2023/05/25 06:14:01;;;;;;;10.00;1.83;;;13.10;99.90;;;;;;5072013;28;20165;-81
2023/05/25 06:16:26;;;;;;;10.43;1.95;;;13.00;99.90;;;;;;5075165;28;20510;-82
2023/05/25 06:18:52;;;;;;;11.85;2.03;;;12.50;99.90;;;;;;5070685;28;20047;-83
2023/05/25 06:21:18;;;;;;;14.88;1.90;;;12.70;99.90;;;;;;5065933;28;20044;-83
2023/05/25 06:23:43;;;;;;;9.82;1.85;;;13.10;99.90;;;;;;5071431;28;20072;-82
2023/05/25 06:26:09;;;;;;;8.35;1.85;;;12.80;99.90;;;;;;5064435;28;20045;-82
2023/05/25 06:28:35;;;;;;;10.90;1.83;;;13.20;99.90;;;;;;5055956;28;20044;-82
2023/05/25 06:31:01;;;;;;;8.63;1.52;;;12.80;99.90;;;;;;5056951;28;20045;-82
2023/05/25 06:33:26;;;;;;;8.77;1.70;;;12.90;99.90;;;;;;5076982;28;20076;-83
2023/05/25 06:35:55;;;;;;;11.77;1.70;;;12.80;99.90;;;;;;5075620;28;20041;-82
2023/05/25 06:38:21;;;;;;;9.55;2.17;;;12.80;99.90;;;;;;5076098;28;20056;-84
2023/05/25 06:40:47;;;;;;;13.10;2.17;;;12.80;99.90;;;;;;5076099;28;20063;-81
2023/05/25 06:43:12;;;;;;;11.00;1.73;;;12.80;99.90;;;;;;5076947;28;20142;-81
2023/05/25 06:45:39;;;;;;;8.40;2.25;;;12.80;99.90;;;;;;5041438;28;20049;-84
2023/05/25 06:48:05;;;;;;;21.45;2.58;;;12.60;99.90;;;;;;5085020;28;20052;-82
2023/05/25 06:50:30;;;;;;;13.75;2.13;;;12.80;99.90;;;;;;5079785;28;20106;-87
2023/05/25 06:52:56;;;;;;;12.88;2.25;;;12.90;99.90;;;;;;5082100;28;20037;-88
2023/05/25 06:55:21;;;;;;;18.75;2.03;;;13.00;99.90;;;;;;5078098;28;20510;-86
2023/05/25 06:57:47;;;;;;;10.13;2.83;;;12.90;99.90;;;;;;5076434;28;20473;-90
2023/05/25 07:00:13;;;;;;;12.25;2.38;;;13.00;99.90;;;;;;5084123;28;20119;-87
2023/05/25 07:02:39;;;;;;;11.82;1.80;;;13.00;99.90;;;;;;5096494;28;20412;-91
2023/05/25 07:05:05;;;;;;;21.23;1.80;;;13.10;99.90;;;;;;5077953;28;20063;-89
2023/05/25 07:07:31;;;;;;;16.25;2.45;;;13.40;99.90;;;;;;5096489;28;20048;-86
2023/05/25 07:09:57;;;;;;;21.20;2.92;;;13.60;99.90;;;;;;5095946;28;20047;-88
2023/05/25 07:12:23;;;;;;;13.70;2.50;;;13.60;99.90;;;;;;5095689;28;20131;-88
2023/05/25 07:14:48;;;;;;;11.10;1.85;;;13.70;99.90;;;;;;5096137;28;20496;-89
2023/05/25 07:17:15;;;;;;;17.05;2.03;;;;;;;;;;5096312;28;20044;-82
2023/05/25 07:19:44;;;;;;;16.70;3.25;;;14.00;99.90;;;;;;5096429;28;20048;-88
2023/05/25 07:22:09;;;;;;;18.70;2.40;;;14.00;99.90;;;;;;5094666;28;20109;-86
2023/05/25 07:24:35;;;;;;;10.50;2.10;;;14.00;99.90;;;;;;5076836;28;20035;-86
2023/05/25 07:27:02;;;;;;;16.88;2.88;;;14.10;99.90;;;;;;5095031;28;20381;-87
2023/05/25 07:29:28;;;;;;;14.45;2.38;;;14.20;99.90;;;;;;5077682;28;20044;-87
2023/05/25 07:31:53;;;;;;;17.48;2.25;;;14.30;99.90;;;;;;5075208;28;20113;-88
2023/05/25 07:34:19;;;;;;;11.85;2.20;;;14.10;99.90;;;;;;5076647;28;20044;-89
2023/05/25 07:36:45;;;;;;;13.13;2.42;;;14.00;99.90;;;;;;5077213;28;20079;-85
2023/05/25 07:39:11;;;;;;;14.23;3.15;;;14.20;99.90;;;;;;5095310;28;20511;-88
2023/05/25 07:41:37;;;;;;;15.75;2.00;;;13.90;99.90;;;;;;5095115;28;20036;-88
2023/05/25 07:44:03;;;;;;;8.35;1.98;;;14.00;99.90;;;;;;5093011;28;20233;-89
2023/05/25 07:46:29;;;;;;;10.18;1.83;;;13.50;99.90;;;;;;5095082;28;20082;-89
2023/05/25 07:48:57;;;;;;;14.32;2.85;;;13.70;99.90;;;;;;5077289;28;20138;-88
2023/05/25 07:51:25;;;;;;;14.82;3.03;;;13.80;99.90;;;;;;5095242;28;20400;-89
2023/05/25 07:53:52;;;;;;;11.77;1.75;;;13.80;99.90;;;;;;5093337;28;20036;-87
2023/05/25 07:56:18;;;;;;;16.60;2.72;;;13.80;99.90;;;;;;5094212;28;20158;-85
2023/05/25 07:58:43;;;;;;;13.63;2.53;;;14.10;99.90;;;;;;5076394;28;20514;-89
2023/05/25 08:01:09;;;;;;;15.10;2.45;;;14.20;99.90;;;;;;5094947;28;20390;-84
2023/05/25 08:03:35;;;;;;;14.05;1.85;;;14.30;99.90;;;;;;5094712;28;20396;-89
2023/05/25 08:06:00;;;;;;;12.40;2.00;;;14.40;99.90;;;;;;5094738;28;20526;-86
2023/05/25 08:08:26;;;;;;;16.90;3.17;;;14.20;99.90;;;;;;5094711;28;20096;-88
2023/05/25 08:10:52;;;;;;;15.63;2.63;;;14.40;99.90;;;;;;5076583;28;20048;-87
2023/05/25 08:13:17;;;;;;;10.45;1.80;;;14.60;99.90;;;;;;5094610;28;20079;-88
2023/05/25 08:15:43;;;;;;;13.15;2.47;;;14.80;99.90;;;;;;5094465;28;20044;-85
2023/05/25 08:18:09;;;;;;;10.73;2.25;;;14.90;99.90;;;;;;5094732;28;20040;-82
2023/05/25 08:20:35;;;;;;;14.73;1.63;;;14.80;99.90;;;;;;5094468;28;20048;-87
2023/05/25 08:23:01;;;;;;;14.07;1.70;;;14.80;99.90;;;;;;5094525;28;20067;-81
2023/05/25 08:25:26;;;;;;;12.05;2.30;;;14.80;99.90;;;;;;5076501;28;20083;-82
2023/05/25 08:27:52;;;;;;;10.48;2.35;;;14.70;99.90;;;;;;5094151;28;20575;-82
2023/05/25 08:30:18;;;;;;;14.13;2.13;;;14.60;99.90;;;;;;5094268;28;20380;-86
2023/05/25 08:32:44;;;;;;;16.35;2.25;;;14.40;99.90;;;;;;5076270;28;20044;-84
2023/05/25 08:35:09;;;;;;;21.13;2.17;;;14.40;99.90;;;;;;5094040;28;20076;-83
2023/05/25 08:37:35;;;;;;;12.93;2.35;;;14.30;99.90;;;;;;5093961;28;20040;-83
2023/05/25 08:40:01;;;;;;;13.23;2.35;;;14.30;99.90;;;;;;5094115;28;20036;-82
2023/05/25 08:42:28;;;;;;;9.88;1.70;;;14.50;99.90;;;;;;5093941;28;20813;-84
2023/05/25 08:44:53;;;;;;;14.88;1.83;;;14.80;99.90;;;;;;5094025;28;20051;-82
2023/05/25 08:47:21;;;;;;;20.42;3.55;;;14.90;99.90;;;;;;5093527;28;20431;-82
2023/05/25 08:49:48;;;;;;;19.88;3.40;;;15.10;99.90;;;;;;5073605;28;20052;-87
2023/05/25 08:52:18;;;;;;;15.75;1.88;;;15.30;99.90;;;;;;5055851;28;20059;-81
2023/05/25 08:54:46;;;;;;;13.40;2.42;;;14.80;99.90;;;;;;5073869;28;20037;-82
2023/05/25 08:57:28;;;;;;;9.77;1.67;;;14.80;99.90;;;;;;5073505;28;20045;-81
2023/05/25 09:00:10;;;;;;;17.45;2.28;;;14.90;99.90;;;;;;5055316;28;20048;-82
2023/05/25 09:03:02;;;;;;;9.77;1.80;;;15.30;99.90;;;;;;5073531;28;20430;-81
2023/05/25 09:05:28;;;;;;;16.05;2.08;;;15.40;99.90;;;;;;5073232;28;20032;-83
2023/05/25 09:07:54;;;;;;;12.20;1.85;;;15.70;99.90;;;;;;5072018;28;20107;-84
2023/05/25 09:10:22;;;;;;;13.15;2.72;;;16.00;99.90;;;;;;5055251;28;20105;-83
2023/05/25 09:12:50;;;;;;;10.10;2.42;;;16.00;99.90;;;;;;5055290;28;20052;-82
2023/05/25 09:15:16;;;;;;;15.88;2.35;;;16.00;99.90;;;;;;5073247;28;20044;-80
2023/05/25 09:17:41;;;;;;;20.08;2.83;;;16.00;99.90;;;;;;5073230;28;20052;-82
2023/05/25 09:20:09;;;;;;;14.13;2.35;;;15.80;99.90;;;;;;5073112;28;20067;-86
2023/05/25 09:22:35;;;;;;;14.90;2.13;;;15.50;99.90;;;;;;5075854;28;20036;-85
2023/05/25 09:25:06;;;;;;;15.20;2.92;;;15.20;99.90;;;;;;5093163;28;20442;-86
2023/05/25 09:27:36;;;;;;;9.15;1.92;;;15.20;99.90;;;;;;5093448;28;20059;-82
2023/05/25 09:30:03;;;;;;;14.52;2.67;;;15.20;99.90;;;;;;5093067;28;20503;-84
2023/05/25 09:32:29;;;;;;;6.78;1.23;;;15.00;99.90;;;;;;5077302;28;20044;-82
2023/05/25 09:35:05;;;;;;;7.88;1.48;;;15.30;99.90;;;;;;5073021;28;20085;-81
2023/05/25 09:37:31;;;;;;;13.00;2.25;;;15.60;99.90;;;;;;5074086;28;20064;-83
2023/05/25 09:39:56;;;;;;;11.32;2.00;;;15.50;99.90;;;;;;5055711;28;20459;-82
2023/05/25 09:42:22;;;;;;;10.80;1.77;;;15.30;99.90;;;;;;5073767;28;20433;-83
2023/05/25 09:44:48;;;;;;;17.33;2.28;;;15.30;99.90;;;;;;5073762;28;20501;-82
2023/05/25 09:47:15;;;;;;;14.02;2.97;;;15.50;99.90;;;;;;5074364;28;20501;-81
2023/05/25 09:49:43;;;;;;;15.23;2.28;;;15.30;99.90;;;;;;5055688;28;20440;-84
2023/05/25 09:52:11;;;;;;;10.90;2.60;;;15.30;99.90;;;;;;5056240;28;20040;-83
2023/05/25 09:54:37;;;;;;;17.42;2.53;;;15.20;99.90;;;;;;5072739;28;20113;-83
2023/05/25 09:57:04;;;;;;;13.60;2.83;;;15.20;99.90;;;;;;5054992;28;20090;-82
2023/05/25 09:59:30;;;;;;;13.38;2.50;;;15.60;99.90;;;;;;5072609;28;20101;-83
2023/05/25 10:01:57;;;;;;;12.63;3.20;;;15.90;99.90;;;;;;5077908;28;20072;-84
2023/05/25 10:04:23;;;;;;;12.95;2.60;;;16.00;99.90;;;;;;5074206;28;20388;-83
2023/05/25 10:06:50;;;;;;;11.38;2.33;;;15.80;99.90;;;;;;5088364;28;20048;-82
2023/05/25 10:09:18;;;;;;;15.32;2.80;;;15.70;99.90;;;;;;5074146;28;20080;-82
2023/05/25 10:11:44;;;;;;;14.07;1.95;;;15.60;99.90;;;;;;5072514;28;20507;-83
2023/05/25 10:14:15;;;;;;;14.60;2.60;;;15.80;99.90;;;;;;5072668;28;20045;-84
2023/05/25 10:16:45;;;;;;;16.38;3.25;;;16.00;99.90;;;;;;5072896;28;20408;-85
2023/05/25 10:19:40;;;;;;;9.35;2.15;;;15.80;99.90;;;;;;5072333;28;20190;-85
2023/05/25 10:22:33;;;;;;;22.60;3.67;;;15.40;99.90;;;;;;4955666;28;20105;-85
2023/05/25 10:25:06;;;;;;;13.20;2.78;;;15.20;99.90;;;;;;4955334;28;20050;-85
2023/05/25 10:27:40;;;;;;;15.48;2.33;;;15.10;99.90;;;;;;4971487;28;20113;-86
2023/05/25 10:30:08;;;;;;;15.00;2.38;;;15.10;99.90;;;;;;4971426;28;20046;-84
2023/05/25 10:32:38;;;;;;;10.73;2.10;;;15.00;99.90;;;;;;4972157;28;20088;-86
2023/05/25 10:35:05;;;;;;;13.77;2.17;;;15.40;99.90;;;;;;4974552;28;20038;-84
2023/05/25 10:37:33;;;;;;;16.88;2.42;;;15.60;99.90;;;;;;4990957;28;20089;-84
2023/05/25 10:40:01;;;;;;;13.68;3.35;;;15.70;99.90;;;;;;4990896;28;20109;-84
2023/05/25 10:42:28;;;;;;;11.57;2.75;;;15.50;99.90;;;;;;4990155;28;20440;-85
2023/05/25 10:44:55;;;;;;;16.35;2.55;;;15.90;99.90;;;;;;4990739;28;20418;-87
2023/05/25 10:47:21;;;;;;;17.75;2.78;;;15.80;99.90;;;;;;4990808;28;20070;-83
2023/05/25 10:49:55;;;;;;;12.82;2.33;;;15.80;99.90;;;;;;4985418;28;20054;-82
2023/05/25 10:52:21;;;;;;;13.52;2.15;;;15.70;99.90;;;;;;4980579;28;20094;-83
2023/05/25 10:54:47;;;;;;;12.82;2.00;;;15.80;99.90;;;;;;4988489;28;20062;-84
2023/05/25 10:57:20;;;;;;;13.07;2.00;;;15.90;99.90;;;;;;4990757;28;20102;-85
2023/05/25 10:59:51;;;;;;;14.88;2.58;;;16.00;99.90;;;;;;5076190;28;20097;-83
2023/05/25 11:02:21;;;;;;;8.43;1.70;;;16.10;99.90;;;;;;5095091;28;20044;-84
2023/05/25 11:04:48;;;;;;;11.85;2.33;;;15.80;99.90;;;;;;5095863;28;20051;-83
2023/05/25 11:07:15;;;;;;;10.50;2.15;;;16.20;99.90;;;;;;5075169;28;20100;-83
2023/05/25 11:09:45;;;;;;;15.88;2.25;;;16.40;99.90;;;;;;5094004;28;20513;-85
2023/05/25 11:12:21;;;;;;;11.43;1.88;;;16.20;99.90;;;;;;5095666;28;20048;-83
2023/05/25 11:15:22;;;;;;;13.68;1.95;;;15.90;99.90;;;;;;5094051;28;20044;-86
2023/05/25 11:18:01;;;;;;;12.20;2.30;;;16.10;99.90;;;;;;4994064;28;20038;-89
2023/05/25 11:20:28;;;;;;;12.77;2.03;;;16.00;99.90;;;;;;4999364;28;20057;-81
2023/05/25 11:22:56;;;;;;;11.45;2.22;;;15.90;99.90;;;;;;4994370;28;20049;-82
2023/05/25 11:25:35;;;;;;;13.48;2.17;;;15.60;99.90;;;;;;4996073;28;20140;-83
2023/05/25 11:28:10;;;;;;;13.43;2.38;;;15.70;99.90;;;;;;5013299;28;20510;-85
2023/05/25 11:30:38;;;;;;;11.32;1.90;;;16.00;99.90;;;;;;5009747;28;20473;-83
2023/05/25 11:33:06;;;;;;;12.05;2.08;;;15.80;99.90;;;;;;4993621;28;20065;-82
2023/05/25 11:35:32;;;;;;;13.98;2.00;;;15.60;99.90;;;;;;4993444;28;20101;-83
2023/05/25 11:37:59;;;;;;;13.00;2.40;;;15.60;99.90;;;;;;4999465;28;20478;-82
2023/05/25 11:40:29;;;;;;;8.88;1.58;;;15.60;99.90;;;;;;4984379;28;20053;-83
2023/05/25 11:42:59;;;;;;;14.85;2.28;;;15.60;99.90;;;;;;4993556;28;20454;-83
2023/05/25 11:45:27;;;;;;;8.48;2.03;;;15.80;99.90;;;;;;4993508;28;20090;-81
2023/05/25 11:47:53;;;;;;;12.27;2.75;;;16.00;99.90;;;;;;4993322;28;20129;-81
2023/05/25 11:50:20;;;;;;;15.50;2.70;;;15.80;99.90;;;;;;5005038;28;20208;-83
2023/05/25 11:52:46;;;;;;;16.83;1.98;;;15.80;99.90;;;;;;5053031;28;20131;-84
2023/05/25 11:55:15;;;;;;;11.75;2.20;;;15.90;99.90;;;;;;5074715;28;20131;-81
2023/05/25 11:57:41;;;;;;;13.07;2.65;;;15.80;99.90;;;;;;5074691;28;20425;-81
2023/05/25 12:00:10;;;;;;;14.25;2.65;;;15.90;99.90;;;;;;5056522;28;20060;-82
2023/05/25 12:02:42;;;;;;;19.25;2.15;;;16.00;99.90;;;;;;5074803;28;20075;-83
2023/05/25 12:05:10;;;;;;;15.20;2.40;;;15.80;99.90;;;;;;5074585;28;20405;-81
2023/05/25 12:07:42;;;;;;;14.52;2.67;;;16.10;99.90;;;;;;5074624;28;20047;-82
2023/05/25 12:10:13;;;;;;;15.68;2.80;;;16.40;99.90;;;;;;5076616;28;20119;-83
2023/05/25 12:12:48;;;;;;;14.27;2.80;;;16.70;99.90;;;;;;5090481;28;20079;-82
2023/05/25 12:15:20;;;;;;;12.30;2.20;;;16.80;99.90;;;;;;5074364;28;20041;-82
2023/05/25 12:17:46;;;;;;;11.45;2.30;;;16.90;99.90;;;;;;5074364;28;20447;-83
2023/05/25 12:20:14;;;;;;;15.90;2.58;;;17.00;99.90;;;;;;5074374;28;20504;-82
2023/05/25 12:22:41;;;;;;;15.35;2.42;;;17.10;99.90;;;;;;5084083;28;20048;-83
2023/05/25 12:25:11;;;;;;;18.73;2.83;;;17.10;99.90;;;;;;5090147;28;20463;-83
2023/05/25 12:27:37;;;;;;;12.73;3.45;;;16.90;99.90;;;;;;5094163;28;20036;-83
2023/05/25 12:30:05;;;;;;;14.32;3.22;;;16.70;99.90;;;;;;5063230;28;20128;-83
2023/05/25 12:32:30;;;;;;;13.45;2.50;;;16.70;99.90;;;;;;5093724;28;20051;-84
2023/05/25 12:35:06;;;;;;;14.35;1.98;;;16.70;99.90;;;;;;5094422;28;20048;-83
2023/05/25 12:37:32;;;;;;;;;;;16.50;99.90;;;;;;5076064;28;20048;-83
2023/05/25 12:39:57;;;;;;;;;;;16.50;99.90;;;;;;5094967;28;19985;-83
2023/05/25 12:42:25;;;;;;;14.98;2.15;;;16.90;99.90;;;;;;5094351;28;20273;-82
2023/05/25 12:44:56;;;;;;;14.20;2.15;;;16.60;99.90;;;;;;5093780;28;20048;-83
2023/05/25 12:47:22;;;;;;;9.15;2.15;;;16.60;99.90;;;;;;5093730;28;20059;-83
2023/05/25 12:49:53;;;;;;;16.35;2.35;;;16.60;99.90;;;;;;5093748;28;20044;-82
2023/05/25 12:52:39;;;;;;;12.27;2.67;;;16.50;99.90;;;;;;5093508;28;20040;-83
2023/05/25 12:55:26;;;;;;;12.77;2.20;;;17.10;99.90;;;;;;5093557;28;20050;-84
2023/05/25 12:58:26;;;;;;;17.45;3.08;;;17.10;99.90;;;;;;5074409;28;20127;-83
2023/05/25 13:00:52;;;;;;;16.00;2.90;;;17.10;99.90;;;;;;5093573;28;20047;-83
2023/05/25 13:03:17;;;;;;;14.48;2.83;;;16.80;99.90;;;;;;5093747;28;20545;-82
2023/05/25 13:05:45;;;;;;;13.75;2.28;;;16.80;99.90;;;;;;5093345;28;20396;-82
2023/05/25 13:08:11;;;;;;;11.65;2.58;;;17.10;99.90;;;;;;5093319;28;20050;-84
2023/05/25 13:10:37;;;;;;;15.90;2.95;;;17.40;99.90;;;;;;5093610;28;20473;-86
2023/05/25 13:13:03;;;;;;;12.35;2.47;;;16.90;99.90;;;;;;5093898;28;20046;-83